Time;durP1;ratioP1;P1;durP2;ratioP2;P2;SDS_P1;SDS_P2;PMS_P1;PMS_P2;Temp;Humidity;BMP_temperature;BMP_pressure;BME280_temperature;BME280_humidity;BME280_pressure;Samples;Min_cycle;Max_cycle;Signal;HPM_P1;HPM_P2
2021/09/16 00:00:22;;;;;;;7.70;2.10;;;;;;;14.84;100.00;101416.03;5083342;28;20414;-61
2021/09/16 00:02:47;;;;;;;7.60;2.60;;;;;;;14.82;100.00;101418.09;5041888;28;20273;-61
2021/09/16 00:05:13;;;;;;;7.10;2.28;;;;;;;14.77;100.00;101406.09;5092989;28;20043;-62
2021/09/16 00:07:39;;;;;;;12.65;2.08;;;;;;;14.74;100.00;101409.19;5075274;28;20055;-61
2021/09/16 00:10:06;;;;;;;10.70;2.20;;;;;;;14.72;100.00;101416.66;5092875;28;20447;-60
2021/09/16 00:12:32;;;;;;;8.83;2.17;;;;;;;14.61;100.00;101417.28;5093239;28;20458;-61
2021/09/16 00:14:58;;;;;;;9.10;2.10;;;;;;;14.64;100.00;101411.47;5074736;28;20356;-61
2021/09/16 00:17:24;;;;;;;7.23;2.13;;;;;;;14.60;100.00;101412.94;5075117;28;20036;-61
2021/09/16 00:19:49;;;;;;;11.63;2.33;;;;;;;14.61;100.00;101409.19;5092787;28;20275;-61
2021/09/16 00:22:15;;;;;;;9.90;2.55;;;;;;;14.67;100.00;101416.44;5093091;28;20032;-61
2021/09/16 00:24:41;;;;;;;9.75;2.80;;;;;;;14.59;100.00;101411.28;5093083;28;20067;-61
2021/09/16 00:27:06;;;;;;;4.72;2.17;;;;;;;14.60;100.00;101412.94;5092821;28;20055;-61
2021/09/16 00:29:32;;;;;;;11.30;2.67;;;;;;;14.60;100.00;101421.00;5092779;28;20122;-60
2021/09/16 00:31:58;;;;;;;13.25;3.53;;;;;;;14.66;100.00;101420.16;5092739;28;20119;-61
2021/09/16 00:34:24;;;;;;;11.35;4.05;;;;;;;14.63;100.00;101420.59;5075144;28;20036;-61
2021/09/16 00:36:50;;;;;;;;;;;;;;;14.64;100.00;101422.22;5075279;28;20069;-61
2021/09/16 00:39:15;;;;;;;26.00;9.77;;;;;;;14.59;100.00;101417.47;5092920;28;19908;-62
2021/09/16 00:41:41;;;;;;;26.45;8.60;;;;;;;14.61;100.00;101422.66;5093243;28;20446;-61
2021/09/16 00:44:07;;;;;;;19.60;7.45;;;;;;;14.58;100.00;101423.88;5074651;28;20033;-60
2021/09/16 00:46:32;;;;;;;22.08;7.97;;;;;;;14.56;100.00;101423.28;5093328;28;20048;-61
2021/09/16 00:48:57;;;;;;;30.47;9.00;;;;;;;14.56;100.00;101430.53;5074772;28;20054;-61
2021/09/16 00:51:23;;;;;;;27.40;9.87;;;;;;;14.55;100.00;101434.25;5058094;28;20306;-61
2021/09/16 00:53:51;;;;;;;22.63;8.13;;;;;;;14.49;100.00;101427.84;5074858;28;20612;-61
2021/09/16 00:56:18;;;;;;;25.70;8.80;;;;;;;14.42;100.00;101435.91;5076707;28;20552;-61
2021/09/16 00:58:47;;;;;;;21.23;7.53;;;;;;;14.51;100.00;101441.06;5096657;28;20751;-59
2021/09/16 01:01:12;;;;;;;23.23;8.10;;;;;;;14.46;100.00;101445.22;5097226;28;20594;-60
2021/09/16 01:03:38;;;;;;;18.35;6.32;;;;;;;14.62;100.00;101429.69;5096782;28;20275;-61
2021/09/16 01:06:06;;;;;;;14.10;4.20;;;;;;;14.68;100.00;101430.72;5096402;28;20036;-60
2021/09/16 01:08:34;;;;;;;14.53;3.87;;;;;;;14.74;100.00;101425.34;5078387;28;20395;-61
2021/09/16 01:11:00;;;;;;;11.03;3.50;;;;;;;14.88;100.00;101422.66;5078611;28;20690;-60
2021/09/16 01:13:25;;;;;;;9.68;3.17;;;;;;;14.88;100.00;101420.81;5096612;28;20257;-61
2021/09/16 01:15:51;;;;;;;9.85;2.97;;;;;;;14.93;100.00;101417.44;5096211;28;20483;-61
2021/09/16 01:18:16;;;;;;;23.23;7.40;;;;;;;14.93;100.00;101420.16;5096487;28;20040;-61
2021/09/16 01:20:42;;;;;;;15.15;5.32;;;;;;;14.89;100.00;101418.91;5096383;28;20082;-61
2021/09/16 01:23:08;;;;;;;16.95;5.20;;;;;;;14.81;100.00;101432.63;5078132;28;20468;-60
2021/09/16 01:25:34;;;;;;;15.30;5.30;;;;;;;14.70;100.00;101424.09;5096126;28;20487;-62
2021/09/16 01:28:01;;;;;;;14.25;5.30;;;;;;;14.62;100.00;101427.00;5096236;28;20044;-62
2021/09/16 01:30:27;;;;;;;16.80;5.10;;;;;;;14.56;100.00;101427.84;5096293;28;20040;-61
2021/09/16 01:32:57;;;;;;;13.13;4.53;;;;;;;14.53;100.00;101422.84;5077921;28;20756;-60
2021/09/16 01:35:23;;;;;;;18.83;5.63;;;;;;;14.43;100.00;101421.41;5078332;28;20277;-61
2021/09/16 01:37:49;;;;;;;;;;;;;;;14.49;100.00;101412.50;5096566;28;20272;-61
2021/09/16 01:40:15;;;;;;;14.07;4.93;;;;;;;14.50;100.00;101413.34;5095896;28;20002;-61
2021/09/16 01:42:45;;;;;;;26.45;7.32;;;;;;;14.48;100.00;101415.41;5096042;28;20424;-62
2021/09/16 01:45:16;;;;;;;19.80;7.77;;;;;;;14.45;100.00;101419.34;5095714;28;20047;-61
2021/09/16 01:47:43;;;;;;;22.07;6.73;;;;;;;14.42;100.00;101419.75;5077937;28;20674;-61
2021/09/16 01:50:10;;;;;;;19.80;6.73;;;;;;;14.39;100.00;101420.19;5095504;28;20327;-61
2021/09/16 01:52:36;;;;;;;17.73;5.87;;;;;;;14.39;100.00;101413.94;5095729;28;20280;-61
2021/09/16 01:55:01;;;;;;;12.00;3.90;;;;;;;14.37;100.00;101422.25;5095419;28;20260;-63
2021/09/16 01:57:27;;;;;;;7.95;3.08;;;;;;;14.36;100.00;101420.59;5095739;28;20458;-62
2021/09/16 01:59:52;;;;;;;8.60;2.00;;;;;;;14.40;100.00;101420.97;5095436;28;20052;-62
2021/09/16 02:02:18;;;;;;;9.98;1.90;;;;;;;14.42;100.00;101427.00;5077228;28;20036;-61
2021/09/16 02:04:43;;;;;;;10.80;2.40;;;;;;;14.36;100.00;101420.59;5077526;28;20483;-62
2021/09/16 02:07:08;;;;;;;6.78;1.65;;;;;;;14.44;100.00;101433.81;5095029;28;20368;-61
2021/09/16 02:09:34;;;;;;;5.77;2.10;;;;;;;14.43;100.00;101425.97;5077286;28;20131;-60
2021/09/16 02:11:59;;;;;;;11.13;2.30;;;;;;;14.38;100.00;101428.44;5077405;28;20768;-62
2021/09/16 02:14:25;;;;;;;15.73;2.00;;;;;;;14.35;100.00;101424.31;5060560;28;20071;-61
2021/09/16 02:16:50;;;;;;;4.90;1.90;;;;;;;14.38;100.00;101423.91;5095402;28;20276;-61
2021/09/16 02:19:16;;;;;;;5.07;2.40;;;;;;;14.33;100.00;101426.38;5095132;28;20489;-62
2021/09/16 02:21:41;;;;;;;6.00;2.55;;;;;;;14.30;100.00;101427.63;5095223;28;20040;-62
2021/09/16 02:24:07;;;;;;;13.80;2.17;;;;;;;14.29;100.00;101425.97;5076875;28;20040;-61
2021/09/16 02:26:33;;;;;;;7.90;2.33;;;;;;;14.25;100.00;101429.25;5095344;28;20032;-62
2021/09/16 02:28:58;;;;;;;9.03;2.30;;;;;;;14.31;100.00;101433.84;5094969;28;20433;-61
2021/09/16 02:31:24;;;;;;;8.88;2.92;;;;;;;14.23;100.00;101436.72;5077072;28;20040;-61
2021/09/16 02:33:49;;;;;;;5.82;1.95;;;;;;;14.20;100.00;101429.91;5095069;28;20132;-61
2021/09/16 02:36:15;;;;;;;8.93;2.23;;;;;;;14.27;100.00;101437.94;5094792;28;20115;-62
2021/09/16 02:38:40;;;;;;;7.00;2.57;;;;;;;14.25;100.00;101443.56;5060037;28;20279;-60
2021/09/16 02:41:06;;;;;;;13.13;4.20;;;;;;;14.20;100.00;101444.16;5076900;28;20135;-61
2021/09/16 02:43:32;;;;;;;20.77;6.95;;;;;;;14.17;100.00;101443.72;5095112;28;20337;-62
2021/09/16 02:45:57;;;;;;;29.60;8.05;;;;;;;14.22;100.00;101457.41;5094883;28;20028;-61
2021/09/16 02:48:23;;;;;;;18.08;7.55;;;;;;;14.29;100.00;101446.63;5094763;28;20120;-61
2021/09/16 02:50:48;;;;;;;22.10;7.78;;;;;;;14.28;100.00;101447.69;5094700;28;20044;-61
2021/09/16 02:53:14;;;;;;;26.95;8.88;;;;;;;14.45;100.00;101440.88;5094519;28;20032;-61
2021/09/16 02:55:39;;;;;;;25.05;6.90;;;;;;;14.47;100.00;101433.41;5094631;28;20066;-61
2021/09/16 02:58:05;;;;;;;18.53;6.43;;;;;;;14.31;100.00;101433.84;5076332;28;20032;-61
2021/09/16 03:00:30;;;;;;;14.23;3.33;;;;;;;14.54;100.00;101433.41;5094269;28;20139;-61
2021/09/16 03:02:56;;;;;;;8.05;3.70;;;;;;;14.66;100.00;101435.50;5094585;28;20036;-61
2021/09/16 03:05:21;;;;;;;12.50;3.05;;;;;;;14.55;100.00;101439.66;5075975;28;20055;-61
2021/09/16 03:07:47;;;;;;;10.35;2.97;;;;;;;14.61;100.00;101452.25;5071798;28;20031;-60
2021/09/16 03:10:13;;;;;;;30.17;7.63;;;;;;;14.64;100.00;101459.91;5093765;28;20052;-62
2021/09/16 03:12:40;;;;;;;9.55;3.53;;;;;;;14.68;100.00;101466.53;5094396;28;20553;-61
2021/09/16 03:15:06;;;;;;;25.17;7.63;;;;;;;14.69;100.00;101459.31;5075762;28;20048;-60
2021/09/16 03:17:31;;;;;;;21.50;7.03;;;;;;;14.71;100.00;101465.34;5094290;28;20674;-62
2021/09/16 03:19:57;;;;;;;24.63;7.93;;;;;;;14.68;100.00;101468.41;5093517;28;20074;-61
2021/09/16 03:22:22;;;;;;;16.93;7.63;;;;;;;14.62;100.00;101472.75;5075309;28;20476;-58
2021/09/16 03:24:48;;;;;;;19.33;5.65;;;;;;;14.57;100.00;101476.06;5075815;28;20055;-61
2021/09/16 03:27:13;;;;;;;24.70;6.33;;;;;;;14.63;100.00;101469.03;5093886;28;20044;-61
2021/09/16 03:29:39;;;;;;;16.60;4.65;;;;;;;14.54;100.00;101471.09;5042772;28;20044;-61
2021/09/16 03:32:05;;;;;;;10.02;3.38;;;;;;;14.57;100.00;101472.56;5093533;28;20162;-62
2021/09/16 03:34:30;;;;;;;14.90;4.35;;;;;;;14.58;100.00;101469.66;5076015;28;20043;-64
2021/09/16 03:36:55;;;;;;;16.02;4.90;;;;;;;14.72;100.00;101473.19;5093541;28;20036;-62
2021/09/16 03:39:21;;;;;;;23.67;6.97;;;;;;;14.67;100.00;101472.97;5093391;28;20040;-61
2021/09/16 03:41:46;;;;;;;18.60;7.37;;;;;;;14.63;100.00;101482.50;5093903;28;20307;-61
2021/09/16 03:44:12;;;;;;;16.77;5.60;;;;;;;14.74;100.00;101481.06;5058479;28;20296;-60
2021/09/16 03:46:37;;;;;;;16.95;7.10;;;;;;;14.66;100.00;101482.06;5075694;28;20040;-61
2021/09/16 03:49:03;;;;;;;18.67;6.93;;;;;;;14.60;100.00;101469.44;5093664;28;20032;-62
2021/09/16 03:51:28;;;;;;;17.95;8.02;;;;;;;14.61;100.00;101471.09;5093123;28;20491;-61
2021/09/16 03:53:54;;;;;;;22.17;8.05;;;;;;;14.58;100.00;101460.75;5075559;28;20365;-63
2021/09/16 03:56:19;;;;;;;22.37;7.40;;;;;;;14.54;100.00;101470.28;5093134;28;20035;-62
2021/09/16 03:58:45;;;;;;;20.10;6.05;;;;;;;14.52;100.00;101469.63;5093041;28;20719;-61
2021/09/16 04:01:10;;;;;;;15.07;5.77;;;;;;;14.48;100.00;101475.44;5092967;28;20098;-62
2021/09/16 04:03:36;;;;;;;12.50;4.38;;;;;;;14.47;100.00;101476.47;5093778;28;20276;-62
2021/09/16 04:06:01;;;;;;;11.10;2.80;;;;;;;14.43;100.00;101477.09;5075234;28;20032;-62
2021/09/16 04:08:27;;;;;;;13.25;2.80;;;;;;;14.29;100.00;101476.22;5093052;28;20044;-60
2021/09/16 04:10:52;;;;;;;7.73;3.27;;;;;;;14.32;100.00;101483.94;5075208;28;20479;-60
2021/09/16 04:13:18;;;;;;;10.37;3.23;;;;;;;14.46;100.00;101474.81;5093353;28;20292;-61
2021/09/16 04:15:43;;;;;;;9.32;4.05;;;;;;;14.41;100.00;101482.69;5075156;28;20272;-62
2021/09/16 04:18:08;;;;;;;20.10;6.83;;;;;;;14.53;100.00;101476.66;5092929;28;20036;-60
2021/09/16 04:20:34;;;;;;;34.28;13.38;;;;;;;14.70;100.00;101486.00;5074691;28;20032;-61
2021/09/16 04:23:00;;;;;;;21.63;9.13;;;;;;;14.74;100.00;101479.19;5092992;28;20051;-60
2021/09/16 04:25:25;;;;;;;27.87;7.63;;;;;;;14.65;100.00;101482.28;5093300;28;20062;-60
2021/09/16 04:27:51;;;;;;;17.80;6.43;;;;;;;14.65;100.00;101488.50;5072423;28;20265;-60
2021/09/16 04:30:16;;;;;;;12.45;4.28;;;;;;;14.58;100.00;101493.06;5063438;28;20036;-62
2021/09/16 04:32:42;;;;;;;22.48;7.97;;;;;;;14.38;100.00;101495.69;5093036;28;20051;-62
2021/09/16 04:35:09;;;;;;;27.80;8.63;;;;;;;14.31;100.00;101487.66;5092908;28;20486;-62
2021/09/16 04:37:34;;;;;;;;;;;;;;;14.24;100.00;101494.84;5093318;28;20043;-61
2021/09/16 04:39:59;;;;;;;17.43;6.93;;;;;;;14.07;100.00;101480.97;5092817;28;20425;-62
2021/09/16 04:42:25;;;;;;;22.87;6.53;;;;;;;14.05;100.00;101489.22;5092606;28;20051;-62
2021/09/16 04:44:51;;;;;;;20.10;8.10;;;;;;;14.11;100.00;101496.50;5092936;28;20051;-62
2021/09/16 04:47:16;;;;;;;23.55;8.32;;;;;;;14.10;100.00;101492.16;5092497;28;20093;-63
2021/09/16 04:49:42;;;;;;;25.20;10.23;;;;;;;14.03;100.00;101485.91;5092763;28;20036;-62
2021/09/16 04:52:07;;;;;;;25.60;9.90;;;;;;;14.05;100.00;101499.97;5092687;28;20078;-62
2021/09/16 04:54:33;;;;;;;30.27;10.23;;;;;;;13.95;100.00;101499.53;5092482;28;20055;-62
2021/09/16 04:56:58;;;;;;;32.43;11.27;;;;;;;13.93;100.00;101502.41;5074745;28;20060;-62
2021/09/16 04:59:24;;;;;;;18.85;7.07;;;;;;;13.85;100.00;101499.91;5074131;28;20044;-61
2021/09/16 05:01:49;;;;;;;24.17;5.35;;;;;;;13.87;100.00;101492.47;5092944;28;20073;-61
2021/09/16 05:04:15;;;;;;;22.48;4.55;;;;;;;13.88;100.00;101489.59;5092588;28;20036;-61
2021/09/16 05:06:41;;;;;;;18.90;7.28;;;;;;;13.94;100.00;101495.19;5074259;28;20384;-61
2021/09/16 05:09:07;;;;;;;39.83;9.88;;;;;;;13.89;100.00;101496.63;5092829;28;20047;-61
2021/09/16 05:11:39;;;;;;;27.45;8.63;;;;;;;13.87;100.00;101498.69;5091646;28;20058;-61
2021/09/16 05:14:05;;;;;;;25.10;8.83;;;;;;;13.90;100.00;101498.28;5092640;28;20123;-62
2021/09/16 05:16:31;;;;;;;30.90;9.35;;;;;;;13.87;100.00;101498.69;5074536;28;20418;-60
2021/09/16 05:18:57;;;;;;;28.48;9.63;;;;;;;13.90;100.00;101498.28;5074389;28;20055;-61
2021/09/16 05:21:22;;;;;;;19.85;7.10;;;;;;;13.91;100.00;101505.31;5092200;28;20051;-61
2021/09/16 05:23:48;;;;;;;20.75;6.47;;;;;;;13.93;100.00;101509.69;5057981;28;20479;-61
2021/09/16 05:26:14;;;;;;;18.45;6.22;;;;;;;13.94;100.00;101511.34;5057996;28;20043;-58
2021/09/16 05:28:40;;;;;;;12.85;4.85;;;;;;;14.04;100.00;101515.31;5073484;28;20398;-61
2021/09/16 05:31:05;;;;;;;18.50;5.97;;;;;;;14.06;100.00;101507.00;5071197;28;20460;-62
2021/09/16 05:33:31;;;;;;;29.40;7.55;;;;;;;14.03;100.00;101507.41;5081098;28;20045;-62
2021/09/16 05:35:57;;;;;;;21.65;6.63;;;;;;;14.07;100.00;101508.69;5083091;28;20028;-62
2021/09/16 05:38:22;;;;;;;26.17;8.23;;;;;;;14.14;100.00;101514.91;5072453;28;20044;-62
2021/09/16 05:40:48;;;;;;;23.85;7.43;;;;;;;14.15;100.00;101505.81;5075569;28;20032;-61
2021/09/16 05:43:14;;;;;;;20.10;7.53;;;;;;;14.11;100.00;101515.31;5059020;28;20157;-62
2021/09/16 05:45:40;;;;;;;26.35;9.00;;;;;;;14.22;100.00;101516.59;5086702;28;20086;-62
2021/09/16 05:48:06;;;;;;;39.42;9.32;;;;;;;14.22;100.00;101515.75;5087831;28;20032;-62
2021/09/16 05:50:31;;;;;;;32.22;9.98;;;;;;;14.23;100.00;101512.88;5084840;28;20028;-60
2021/09/16 05:52:57;;;;;;;25.65;9.07;;;;;;;14.30;100.00;101521.78;5059383;28;20045;-62
2021/09/16 05:55:23;;;;;;;30.83;7.72;;;;;;;14.32;100.00;101522.41;5060219;28;20145;-60
2021/09/16 05:57:49;;;;;;;17.65;6.85;;;;;;;14.36;100.00;101520.16;5093277;28;20071;-62
2021/09/16 06:00:15;;;;;;;11.93;4.75;;;;;;;14.43;100.00;101525.53;5094015;28;20052;-61
2021/09/16 06:02:41;;;;;;;16.73;4.60;;;;;;;14.42;100.00;101532.78;5091571;28;20047;-62
2021/09/16 06:05:08;;;;;;;16.77;4.07;;;;;;;14.35;100.00;101531.94;5094463;28;20272;-61
2021/09/16 06:07:35;;;;;;;11.47;4.07;;;;;;;14.34;100.00;101532.97;5072435;28;20048;-62
2021/09/16 06:10:01;;;;;;;12.85;4.05;;;;;;;14.29;100.00;101530.03;5069853;28;20837;-61
2021/09/16 06:12:29;;;;;;;11.20;4.40;;;;;;;14.34;100.00;101535.66;5086318;28;20028;-62
2021/09/16 06:14:55;;;;;;;14.33;5.53;;;;;;;14.38;100.00;101538.75;5085922;28;20913;-61
2021/09/16 06:17:22;;;;;;;15.32;5.57;;;;;;;14.34;100.00;101541.03;5067546;28;20260;-60
2021/09/16 06:19:48;;;;;;;;;;;;;;;14.32;100.00;101546.63;5067649;28;20047;-62
2021/09/16 06:22:14;;;;;;;14.77;4.53;;;;;;;14.22;100.00;101553.41;5086112;28;20376;-62
2021/09/16 06:24:40;;;;;;;13.65;5.18;;;;;;;14.30;100.00;101546.00;5085045;28;20362;-62
2021/09/16 06:27:06;;;;;;;13.25;3.55;;;;;;;14.34;100.00;101549.13;5084617;28;20031;-62
2021/09/16 06:29:32;;;;;;;18.65;5.00;;;;;;;14.28;100.00;101552.59;5086203;28;20032;-62
2021/09/16 06:31:58;;;;;;;10.63;4.63;;;;;;;14.39;100.00;101559.25;5095468;28;20070;-62
2021/09/16 06:34:25;;;;;;;18.25;5.15;;;;;;;14.35;100.00;101561.53;5095236;28;20093;-61
2021/09/16 06:36:51;;;;;;;18.37;5.77;;;;;;;14.44;100.00;101562.19;5077293;28;20068;-62
2021/09/16 06:39:17;;;;;;;13.82;6.00;;;;;;;14.46;100.00;101563.63;5095168;28;20311;-61
2021/09/16 06:41:43;;;;;;;18.05;6.55;;;;;;;14.61;100.00;101573.38;5077176;28;20044;-61
2021/09/16 06:44:09;;;;;;;13.57;6.25;;;;;;;14.54;100.00;101559.91;5095527;28;20063;-61
2021/09/16 06:46:35;;;;;;;18.77;6.30;;;;;;;14.69;100.00;101559.72;5076568;28;20082;-64
2021/09/16 06:49:00;;;;;;;20.05;6.40;;;;;;;14.73;100.00;101555.63;5077106;28;20063;-62
2021/09/16 06:51:26;;;;;;;14.57;4.65;;;;;;;14.70;100.00;101569.47;5076974;28;20047;-61
2021/09/16 06:53:53;;;;;;;16.10;5.10;;;;;;;14.77;100.00;101567.66;5094252;28;20094;-62
2021/09/16 06:56:19;;;;;;;20.70;5.73;;;;;;;14.85;100.00;101573.88;5094963;28;20128;-61
2021/09/16 06:58:44;;;;;;;19.02;7.32;;;;;;;14.80;100.00;101569.09;5077629;28;20293;-61
2021/09/16 07:01:10;;;;;;;15.43;5.00;;;;;;;14.73;100.00;101571.75;5078917;28;20048;-61
2021/09/16 07:03:36;;;;;;;18.42;6.10;;;;;;;14.75;100.00;101572.38;5076229;28;20040;-61
2021/09/16 07:06:02;;;;;;;9.38;3.95;;;;;;;14.74;100.00;101573.44;5094350;28;20044;-61
2021/09/16 07:08:28;;;;;;;12.38;3.92;;;;;;;14.68;100.00;101565.34;5094220;28;20040;-61
2021/09/16 07:10:53;;;;;;;9.55;3.88;;;;;;;14.73;100.00;101561.00;5094607;28;20039;-61
2021/09/16 07:13:19;;;;;;;16.90;4.55;;;;;;;14.80;100.00;101565.59;5093749;28;20042;-60
2021/09/16 07:15:45;;;;;;;13.52;5.93;;;;;;;14.82;100.00;101561.63;5089315;28;20032;-61
2021/09/16 07:18:11;;;;;;;17.75;5.85;;;;;;;14.79;100.00;101551.28;5075638;28;20036;-62
2021/09/16 07:20:36;;;;;;;12.55;4.43;;;;;;;14.82;100.00;101563.50;5093537;28;20055;-61
2021/09/16 07:23:02;;;;;;;8.13;3.45;;;;;;;14.99;100.00;101562.06;5077012;28;20072;-61
2021/09/16 07:25:28;;;;;;;12.90;4.10;;;;;;;15.07;100.00;101569.09;5077759;28;20549;-61
2021/09/16 07:27:54;;;;;;;14.30;4.20;;;;;;;15.23;100.00;101570.56;5093575;28;20483;-62
2021/09/16 07:30:19;;;;;;;9.15;3.78;;;;;;;15.39;100.00;101580.06;5078199;28;20041;-61
2021/09/16 07:32:45;;;;;;;21.30;3.55;;;;;;;15.49;100.00;101574.25;5054981;28;20399;-61
2021/09/16 07:35:11;;;;;;;8.05;2.83;;;;;;;15.65;100.00;101577.50;5092279;28;20032;-62
2021/09/16 07:37:38;;;;;;;13.63;2.92;;;;;;;15.68;100.00;101579.78;5093281;28;20044;-61
2021/09/16 07:40:04;;;;;;;6.63;1.90;;;;;;;15.85;100.00;101588.25;5075713;28;20042;-62
2021/09/16 07:42:30;;;;;;;8.37;2.07;;;;;;;15.95;100.00;101583.28;5090492;28;20045;-62
2021/09/16 07:44:56;;;;;;;7.03;2.20;;;;;;;15.99;100.00;101583.69;5073074;28;20613;-62
2021/09/16 07:47:21;;;;;;;10.93;1.60;;;;;;;16.03;100.00;101576.81;5055208;28;20404;-61
2021/09/16 07:49:47;;;;;;;3.25;1.42;;;;;;;16.13;100.00;101579.88;5073288;28;20123;-62
2021/09/16 07:52:14;;;;;;;5.47;1.92;;;;;;;16.40;100.00;101587.84;5073289;28;20059;-62
2021/09/16 07:54:41;;;;;;;4.63;1.67;;;;;;;16.54;100.00;101593.16;5055710;28;20131;-61
2021/09/16 07:57:07;;;;;;;7.60;2.23;;;;;;;16.65;100.00;101589.78;5055554;28;20398;-63
2021/09/16 07:59:33;;;;;;;5.75;1.83;;;;;;;16.73;100.00;101586.81;5054891;28;20493;-62
2021/09/16 08:01:58;;;;;;;5.32;1.90;;;;;;;16.85;100.00;101589.63;5055646;28;20131;-62
2021/09/16 08:04:24;;;;;;;8.50;1.90;;;;;;;16.96;100.00;101592.69;5073088;28;20135;-62
2021/09/16 08:06:50;;;;;;;10.30;2.35;;;;;;;16.83;100.00;101589.03;5073050;28;20044;-61
2021/09/16 08:09:16;;;;;;;6.45;2.00;;;;;;;16.97;100.00;101594.34;5063891;28;20464;-63
2021/09/16 08:11:43;;;;;;;3.43;1.77;;;;;;;16.97;100.00;101595.16;5056270;28;20123;-62
2021/09/16 08:14:11;;;;;;;6.57;1.88;;;;;;;17.04;100.00;101595.13;5082492;28;20056;-60
2021/09/16 08:16:37;;;;;;;7.63;2.03;;;;;;;17.17;100.00;101578.78;5083763;28;20103;-64
2021/09/16 08:19:05;;;;;;;4.87;1.87;;;;;;;17.28;100.00;101582.66;5064161;28;20107;-62
2021/09/16 08:21:32;;;;;;;9.67;1.83;;;;;;;17.37;100.00;101587.78;5063662;28;20035;-61
2021/09/16 08:23:57;;;;;;;9.20;2.23;;;;;;;17.49;100.00;101588.69;5083267;28;20035;-62
2021/09/16 08:26:23;;;;;;;12.63;2.58;;;;;;;17.63;100.00;101581.25;5081458;28;20028;-61
2021/09/16 08:28:50;;;;;;;6.03;2.35;;;;;;;17.79;100.00;101606.91;5082666;28;20027;-63
2021/09/16 08:31:15;;;;;;;7.00;2.40;;;;;;;17.83;100.00;101602.69;5081041;28;20055;-61
2021/09/16 08:33:41;;;;;;;10.77;2.47;;;;;;;17.99;100.00;101600.41;5079995;28;20494;-59
2021/09/16 08:36:10;;;;;;;8.02;2.45;;;;;;;18.23;100.00;101608.72;5063675;28;20472;-61
2021/09/16 08:38:36;;;;;;;12.03;2.10;;;;;;;18.54;100.00;101601.41;5080735;28;20028;-61
2021/09/16 08:41:02;;;;;;;;;;;;;;;18.73;100.00;101608.44;5080629;28;20103;-61
2021/09/16 08:43:30;;;;;;;4.57;1.70;;;;;;;18.94;100.00;101618.94;5081025;28;20015;-62
2021/09/16 08:45:59;;;;;;;6.63;1.47;;;;;;;19.19;100.00;101616.09;5062435;28;20431;-62
2021/09/16 08:48:24;;;;;;;5.33;1.40;;;;;;;19.62;100.00;101608.63;5081650;28;20028;-61
2021/09/16 08:50:51;;;;;;;8.02;1.90;;;;;;;19.66;100.00;101615.22;5081585;28;20024;-62
2021/09/16 08:53:28;;;;;;;2.78;1.02;;;;;;;19.69;100.00;101616.66;5079329;28;20040;-62
2021/09/16 08:55:56;;;;;;;2.87;1.10;;;;;;;20.07;100.00;101620.75;5076416;28;20119;-62
2021/09/16 08:58:27;;;;;;;4.40;1.30;;;;;;;20.68;100.00;101617.53;5072024;28;20062;-62
2021/09/16 09:00:54;;;;;;;8.37;1.27;;;;;;;21.00;100.00;101608.03;5054122;28;20495;-61
2021/09/16 09:03:21;;;;;;;6.63;1.33;;;;;;;21.40;100.00;101614.34;5072495;28;20123;-64
2021/09/16 09:05:46;;;;;;;;;;;;;;;20.99;100.00;101622.72;5072304;28;20029;-62
2021/09/16 09:08:13;;;;;;;4.93;1.67;;;;;;;21.75;100.00;101613.25;5071933;28;20019;-62
2021/09/16 09:10:49;;;;;;;4.23;1.60;;;;;;;22.14;100.00;101618.59;5071811;28;20021;-62
2021/09/16 09:13:35;;;;;;;4.15;1.55;;;;;;;22.33;100.00;101618.28;5071951;28;20045;-63
2021/09/16 09:16:06;;;;;;;4.97;1.37;;;;;;;23.22;100.00;101620.72;5071769;28;20040;-61
2021/09/16 09:18:45;;;;;;;5.43;1.30;;;;;;;23.53;99.51;101631.88;5075675;28;20040;-62
2021/09/16 09:21:13;;;;;;;6.30;1.07;;;;;;;22.73;100.00;101625.25;5075877;28;20048;-62
2021/09/16 09:23:42;;;;;;;3.43;1.30;;;;;;;23.66;97.47;101627.03;5058623;28;20070;-60
2021/09/16 09:26:27;;;;;;;4.90;1.50;;;;;;;24.05;84.53;101635.69;5089785;28;20046;-62
2021/09/16 09:28:56;;;;;;;2.87;1.10;;;;;;;24.91;80.17;101624.41;5086993;28;20044;-62
2021/09/16 09:31:26;;;;;;;2.58;1.25;;;;;;;25.43;71.46;101635.28;5075830;28;20046;-61
2021/09/16 09:33:52;;;;;;;6.03;1.30;;;;;;;25.30;74.32;101633.94;5064468;28;20170;-61
2021/09/16 09:36:21;;;;;;;8.68;1.65;;;;;;;25.97;68.96;101640.34;5076768;28;20418;-62
2021/09/16 09:38:51;;;;;;;9.27;1.20;;;;;;;26.00;64.85;101650.75;5068899;28;20044;-62
2021/09/16 09:41:35;;;;;;;5.80;1.60;;;;;;;26.62;61.30;101645.75;5085137;28;20112;-61
2021/09/16 09:44:13;;;;;;;3.42;1.15;;;;;;;26.53;59.95;101650.22;5075066;28;20032;-61
2021/09/16 09:46:44;;;;;;;3.17;1.35;;;;;;;25.18;68.54;101647.09;5057322;28;20044;-58
2021/09/16 09:49:13;;;;;;;5.53;1.33;;;;;;;24.94;67.26;101649.56;5057643;28;20032;-64
2021/09/16 09:51:49;;;;;;;2.33;0.90;;;;;;;25.57;68.74;101646.50;5062951;28;20036;-61
2021/09/16 09:54:24;;;;;;;3.83;1.13;;;;;;;26.23;66.14;101649.31;5077270;28;20443;-62
2021/09/16 09:56:57;;;;;;;2.00;1.05;;;;;;;27.11;60.71;101650.63;5076863;28;20040;-61
2021/09/16 09:59:24;;;;;;;5.95;1.25;;;;;;;27.70;54.40;101656.09;5077405;28;20579;-63
2021/09/16 10:01:50;;;;;;;3.67;1.02;;;;;;;27.54;51.29;101656.25;5074778;28;20040;-60
2021/09/16 10:04:27;;;;;;;2.92;0.82;;;;;;;27.61;50.22;101667.72;5059558;28;20555;-61
2021/09/16 10:06:54;;;;;;;3.38;1.00;;;;;;;27.28;57.62;101662.00;5054999;28;20041;-62
2021/09/16 10:09:21;;;;;;;4.88;1.20;;;;;;;27.91;56.25;101664.91;5062302;28;20021;-63
2021/09/16 10:11:50;;;;;;;4.10;1.50;;;;;;;27.91;56.47;101660.25;5073045;28;20127;-62
2021/09/16 10:14:17;;;;;;;5.22;1.80;;;;;;;28.03;51.44;101664.47;5052645;28;20490;-62
2021/09/16 10:16:43;;;;;;;3.25;1.90;;;;;;;28.82;53.50;101660.38;5054286;28;20039;-60
2021/09/16 10:19:09;;;;;;;5.53;1.70;;;;;;;29.28;51.63;101656.00;5058896;28;20037;-62
2021/09/16 10:21:36;;;;;;;4.90;1.60;;;;;;;30.08;45.85;101660.56;5069587;28;20518;-61
2021/09/16 10:24:03;;;;;;;3.38;1.13;;;;;;;30.07;44.32;101664.44;5074586;28;20512;-61
2021/09/16 10:26:41;;;;;;;3.63;1.25;;;;;;;30.24;43.15;101672.06;5074588;28;20461;-61
2021/09/16 10:29:26;;;;;;;3.72;1.23;;;;;;;29.88;43.14;101673.63;5073475;28;20254;-61
2021/09/16 10:32:12;;;;;;;4.68;2.20;;;;;;;30.26;46.61;101671.75;5074016;28;20068;-61
2021/09/16 10:34:56;;;;;;;4.78;1.73;;;;;;;30.38;44.44;101668.47;5063743;28;20501;-61
2021/09/16 10:37:23;;;;;;;5.05;2.08;;;;;;;31.02;45.67;101671.06;5074161;28;20094;-62
2021/09/16 10:39:50;;;;;;;3.53;1.10;;;;;;;30.47;42.45;101680.38;5074497;28;20456;-62
2021/09/16 10:42:17;;;;;;;4.95;1.85;;;;;;;29.26;45.04;101680.28;5074321;28;20132;-59
2021/09/16 10:44:44;;;;;;;6.55;1.70;;;;;;;28.34;45.74;101669.59;5073394;28;20067;-61
2021/09/16 10:47:22;;;;;;;3.05;0.75;;;;;;;29.19;47.33;101671.59;5074540;28;20044;-61
2021/09/16 10:49:50;;;;;;;5.30;1.02;;;;;;;29.86;45.10;101664.00;5072524;28;20503;-61
2021/09/16 10:52:18;;;;;;;3.97;1.45;;;;;;;30.37;43.56;101661.31;5073691;28;20107;-62
2021/09/16 10:54:48;;;;;;;5.40;1.90;;;;;;;30.81;42.98;101668.03;5074223;28;20573;-62
2021/09/16 10:57:15;;;;;;;10.48;3.50;;;;;;;31.56;42.38;101667.44;5063529;28;20036;-61
2021/09/16 11:00:10;;;;;;;10.35;4.10;;;;;;;31.88;40.60;101668.25;5063639;28;20036;-61
2021/09/16 11:02:39;;;;;;;4.57;2.05;;;;;;;31.74;41.21;101668.34;5077251;28;20107;-62
2021/09/16 11:05:23;;;;;;;6.00;1.40;;;;;;;30.33;42.23;101658.34;5083459;28;20032;-61
2021/09/16 11:07:55;;;;;;;4.93;1.25;;;;;;;28.97;45.20;101662.06;5049685;28;20040;-61
2021/09/16 11:10:21;;;;;;;3.65;1.35;;;;;;;28.40;47.61;101662.91;5082860;28;20392;-61
2021/09/16 11:12:49;;;;;;;5.05;1.70;;;;;;;30.14;46.36;101675.06;5081546;28;20059;-61